Rumpus Ridge, South Dakota
Current Conditions -  °F | °C
As of 6:56 PM on Thursday 18 Dec 2014 (Local Time) from KFSD Reporting Station
Overcast Overcast  
Wind Chill: 19°   Ceiling: 1100
Heat Index: 27°   Visibility: 9mi
Dew Point: 23°   Wind: 7mph
Humidity: 85%   Direction: 160°SSE
Pressure: 30.18"   Gusts: NA
Location:  43.5855°N, 97.3085°W
Report Text: KFSD 190056Z 16006KT 9SM OVC011 M03/M05 A3018 RMK AO2 SLP243 T10281050
Loading
Personal Weather Stations






























Interactive Weather Map New forecast layout! Learn more

10-Day Weather Forecast

Advertisements
Track Severe Weather on mobile